Time;durP1;ratioP1;P1;durP2;ratioP2;P2;SDS_P1;SDS_P2;PMS_P1;PMS_P2;Temp;Humidity;BMP_temperature;BMP_pressure;BME280_temperature;BME280_humidity;BME280_pressure;Samples;Min_cycle;Max_cycle;Signal;HPM_P1;HPM_P2
2023/06/06 00:02:08;;;;;;;;;;;;;;;15.45;100.00;-18443.34;4989175;28;20304;-79
2023/06/06 00:04:35;;;;;;;;;;;;;;;15.34;100.00;-18440.47;5010430;28;20295;-79
2023/06/06 00:07:03;;;;;;;;;;;;;;;15.29;100.00;-18439.13;4984753;28;19956;-80
2023/06/06 00:09:29;;;;;;;;;;;;;;;15.13;100.00;-18434.88;4999460;28;19917;-79
2023/06/06 00:11:56;;;;;;;;;;;;;;;15.11;100.00;-18434.47;5013934;28;19936;-79
2023/06/06 00:14:22;;;;;;;;;;;;;;;15.04;100.00;-18432.41;5012365;28;19921;-78
2023/06/06 00:16:49;;;;;;;;;;;;;;;14.98;100.00;-18430.91;5028281;28;19925;-78
2023/06/06 00:19:15;;;;;;;;;;;;;;;14.96;100.00;-18430.22;5022721;28;19921;-78
2023/06/06 00:21:41;;;;;;;;;;;;;;;14.86;100.00;-18427.75;5020472;28;19968;-78
2023/06/06 00:24:06;;;;;;;;;;;;;;;14.89;100.00;-18428.56;5006969;28;19922;-79
2023/06/06 00:26:31;;;;;;;;;;;;;;;14.77;100.00;-18425.16;4973869;28;19923;-78
2023/06/06 00:28:56;;;;;;;;;;;;;;;14.75;100.00;-18424.59;4975863;28;20012;-77
2023/06/06 00:31:21;;;;;;;;;;;;;;;14.81;100.00;-18426.25;4957504;28;20455;-78
2023/06/06 00:33:47;;;;;;;;;;;;;;;14.76;100.00;-18424.88;4942695;28;20675;-78
2023/06/06 00:36:12;;;;;;;;;;;;;;;14.61;100.00;-18421.06;4949229;29;20460;-78
2023/06/06 00:38:37;;;;;;;;;;;;;;;14.66;100.00;-18422.28;4950052;29;19926;-78
2023/06/06 00:41:02;;;;;;;;;;;;;;;14.60;100.00;-18420.78;4946179;29;19926;-80
2023/06/06 00:43:28;;;;;;;;;;;;;;;14.69;100.00;-18423.09;4950068;29;20365;-79
2023/06/06 00:45:53;;;;;;;;;;;;;;;14.52;100.00;-18418.59;4930663;29;19926;-78
2023/06/06 00:48:18;;;;;;;;;;;;;;;14.45;100.00;-18416.66;4943412;29;19954;-77
2023/06/06 00:50:47;;;;;;;;;;;;;;;14.41;100.00;-18415.56;4946970;29;19918;-78
2023/06/06 00:53:13;;;;;;;;;;;;;;;14.43;100.00;-18416.25;4928375;29;19930;-78
2023/06/06 00:55:39;;;;;;;;;;;;;;;14.33;100.00;-18413.38;4943694;29;19989;-80
2023/06/06 00:58:04;;;;;;;;;;;;;;;14.27;100.00;-18411.88;4946688;29;20394;-79
2023/06/06 01:00:32;;;;;;;;;;;;;;;14.22;100.00;-18410.50;4977425;28;19924;-79
2023/06/06 01:02:59;;;;;;;;;;;;;;;14.16;100.00;-18409.00;4981819;28;19918;-78
2023/06/06 01:05:24;;;;;;;;;;;;;;;14.12;100.00;-18407.75;4988365;28;19922;-78
2023/06/06 01:07:50;;;;;;;;;;;;;;;14.12;100.00;-18407.91;5003233;28;20024;-79
2023/06/06 01:10:16;;;;;;;;;;;;;;;14.07;100.00;-18406.53;5001009;28;19929;-78
2023/06/06 01:13:00;;;;;;;;;;;;;;;14.02;100.00;-18405.16;5021649;28;19924;-79
2023/06/06 01:15:25;;;;;;;;;;;;;;;13.89;100.00;-18401.75;4965698;28;19921;-79
2023/06/06 01:17:51;;;;;;;;;;;;;;;13.97;100.00;-18403.78;5020741;28;20332;-79
2023/06/06 01:20:16;;;;;;;;;;;;;;;14.04;100.00;-18405.72;5004930;28;19944;-78
2023/06/06 01:22:46;;;;;;;;;;;;;;;13.92;100.00;-18402.56;5007896;28;19919;-79
2023/06/06 01:25:12;;;;;;;;;;;;;;;13.89;100.00;-18401.59;5007618;28;19967;-82
2023/06/06 01:27:39;;;;;;;;;;;;;;;13.87;100.00;-18401.06;5011276;28;20540;-78
2023/06/06 01:30:04;;;;;;;;;;;;;;;13.87;100.00;-18401.19;5006900;28;19971;-79
2023/06/06 01:32:32;;;;;;;;;;;;;;;13.84;100.00;-18400.22;5008272;28;19957;-79
2023/06/06 01:35:16;;;;;;;;;;;;;;;13.75;100.00;-18398.03;5014279;28;20020;-77
2023/06/06 01:37:50;;;;;;;;;;;;;;;13.71;100.00;-18396.81;5011457;28;19984;-78
2023/06/06 01:40:19;;;;;;;;;;;;;;;13.60;100.00;-18393.94;5012340;28;20385;-78
2023/06/06 01:42:46;;;;;;;;;;;;;;;13.53;100.00;-18392.00;5011420;28;20348;-78
2023/06/06 01:45:12;;;;;;;;;;;;;;;13.61;100.00;-18394.22;5004493;28;19928;-78
2023/06/06 01:47:38;;;;;;;;;;;;;;;13.49;100.00;-18390.91;5010520;28;19921;-76
2023/06/06 01:50:07;;;;;;;;;;;;;;;13.55;100.00;-18392.56;5016949;28;19922;-78
2023/06/06 01:52:36;;;;;;;;;;;;;;;13.51;100.00;-18391.47;5009695;28;19932;-77
2023/06/06 01:55:01;;;;;;;;;;;;;;;13.53;100.00;-18392.16;5012227;28;19925;-77
2023/06/06 01:57:27;;;;;;;;;;;;;;;13.46;100.00;-18390.22;5011725;28;19933;-77
2023/06/06 01:59:52;;;;;;;;;;;;;;;13.40;100.00;-18388.59;4992479;28;20017;-78
2023/06/06 02:02:17;;;;;;;;;;;;;;;13.43;100.00;-18389.41;5012088;28;19975;-77
2023/06/06 02:04:43;;;;;;;;;;;;;;;13.50;100.00;-18391.19;5011800;28;19980;-77
2023/06/06 02:07:08;;;;;;;;;;;;;;;13.53;100.00;-18392.00;4993843;28;20656;-78
2023/06/06 02:09:33;;;;;;;;;;;;;;;13.35;100.00;-18387.06;5009778;28;19972;-77
2023/06/06 02:11:58;;;;;;;;;;;;;;;13.34;100.00;-18386.94;4994356;28;19928;-78
2023/06/06 02:14:24;;;;;;;;;;;;;;;13.35;100.00;-18387.06;5009053;28;19926;-79
2023/06/06 02:16:50;;;;;;;;;;;;;;;13.29;100.00;-18385.72;5006173;28;20056;-79
2023/06/06 02:19:15;;;;;;;;;;;;;;;13.19;100.00;-18382.97;5008233;28;19921;-81
2023/06/06 02:21:40;;;;;;;;;;;;;;;13.09;100.00;-18380.22;5012860;28;19930;-77
2023/06/06 02:24:06;;;;;;;;;;;;;;;13.17;100.00;-18382.28;5010012;28;19925;-77
2023/06/06 02:26:31;;;;;;;;;;;;;;;13.19;100.00;-18382.81;5004220;28;19929;-79
2023/06/06 02:28:57;;;;;;;;;;;;;;;13.15;100.00;-18381.72;5004705;28;19926;-79
2023/06/06 02:31:23;;;;;;;;;;;;;;;13.12;100.00;-18380.91;5012958;28;19928;-78
2023/06/06 02:33:48;;;;;;;;;;;;;;;13.02;100.00;-18378.31;5010130;28;19941;-79
2023/06/06 02:36:17;;;;;;;;;;;;;;;13.07;100.00;-18379.69;5032197;23;19925;-80
2023/06/06 02:38:42;;;;;;;;;;;;;;;13.05;100.00;-18379.25;5032768;28;19994;-79
2023/06/06 02:41:07;;;;;;;;;;;;;;;13.04;100.00;-18379.00;5045344;28;19967;-80
2023/06/06 02:43:35;;;;;;;;;;;;;;;13.00;100.00;-18377.75;5028090;28;19922;-79
2023/06/06 02:46:00;;;;;;;;;;;;;;;12.95;100.00;-18376.38;5016567;28;19974;-80
2023/06/06 02:48:26;;;;;;;;;;;;;;;12.82;100.00;-18373.09;5014889;28;20335;-80
2023/06/06 02:50:51;;;;;;;;;;;;;;;12.80;100.00;-18372.53;5028815;28;19963;-80
2023/06/06 02:53:18;;;;;;;;;;;;;;;12.81;100.00;-18372.81;5013114;28;19926;-80
2023/06/06 02:55:43;;;;;;;;;;;;;;;12.75;100.00;-18371.19;5013899;28;20308;-80
2023/06/06 02:58:24;;;;;;;;;;;;;;;12.55;100.00;-18365.69;5013193;28;19968;-80
2023/06/06 03:00:50;;;;;;;;;;;;;;;12.58;100.00;-18366.66;5008866;28;20379;-80
2023/06/06 03:03:15;;;;;;;;;;;;;;;12.47;100.00;-18363.50;5029751;28;19922;-80
2023/06/06 03:05:40;;;;;;;;;;;;;;;12.70;100.00;-18369.81;5014026;28;19928;-79
2023/06/06 03:08:06;;;;;;;;;;;;;;;12.59;100.00;-18366.78;5013407;28;19918;-79
2023/06/06 03:10:31;;;;;;;;;;;;;;;12.40;100.00;-18361.72;5015148;28;19918;-80
2023/06/06 03:12:56;;;;;;;;;;;;;;;12.33;100.00;-18359.78;5022418;28;19917;-80
2023/06/06 03:15:22;;;;;;;;;;;;;;;12.40;100.00;-18361.84;5029946;28;19925;-79
2023/06/06 03:17:48;;;;;;;;;;;;;;;12.36;100.00;-18360.63;5018992;28;20119;-80
2023/06/06 03:20:13;;;;;;;;;;;;;;;12.40;100.00;-18361.84;5010068;28;19949;-80
2023/06/06 03:22:38;;;;;;;;;;;;;;;12.39;100.00;-18361.56;5022593;28;20303;-79
2023/06/06 03:25:04;;;;;;;;;;;;;;;12.36;100.00;-18360.63;5016299;28;19917;-79
2023/06/06 03:27:29;;;;;;;;;;;;;;;12.44;100.00;-18362.66;5012582;28;19955;-80
2023/06/06 03:29:55;;;;;;;;;;;;;;;12.42;100.00;-18362.41;5013507;28;20384;-79
2023/06/06 03:32:21;;;;;;;;;;;;;;;12.38;100.00;-18361.31;5026762;28;19967;-79
2023/06/06 03:34:48;;;;;;;;;;;;;;;12.50;100.00;-18364.44;5022642;28;19929;-80
2023/06/06 03:37:13;;;;;;;;;;;;;;;12.45;100.00;-18363.09;5017574;28;20649;-79
2023/06/06 03:39:40;;;;;;;;;;;;;;;12.40;100.00;-18361.84;5018182;28;19921;-79
2023/06/06 03:42:06;;;;;;;;;;;;;;;12.33;100.00;-18359.94;5017107;28;20392;-80
2023/06/06 03:44:31;;;;;;;;;;;;;;;12.48;100.00;-18363.75;5012707;28;19948;-79
2023/06/06 03:46:56;;;;;;;;;;;;;;;12.39;100.00;-18361.56;5020993;28;20048;-79
2023/06/06 03:49:22;;;;;;;;;;;;;;;12.44;100.00;-18362.66;5012592;28;19921;-79
2023/06/06 03:51:47;;;;;;;;;;;;;;;12.38;100.00;-18361.31;5017819;28;19960;-79
2023/06/06 03:54:12;;;;;;;;;;;;;;;12.31;100.00;-18359.38;5019905;28;19983;-79
2023/06/06 03:56:40;;;;;;;;;;;;;;;12.31;100.00;-18359.38;5010105;28;19922;-79
2023/06/06 03:59:11;;;;;;;;;;;;;;;12.44;100.00;-18362.81;5012663;28;20423;-79
2023/06/06 04:01:36;;;;;;;;;;;;;;;12.47;100.00;-18363.50;5010169;28;19971;-79
2023/06/06 04:04:01;;;;;;;;;;;;;;;12.59;100.00;-18366.78;5015943;28;19929;-80
2023/06/06 04:06:27;;;;;;;;;;;;;;;12.57;100.00;-18366.22;5012190;28;19972;-78
2023/06/06 04:08:52;;;;;;;;;;;;;;;12.68;100.00;-18369.25;5014779;28;20012;-79
2023/06/06 04:11:17;;;;;;;;;;;;;;;12.49;100.00;-18364.03;5013414;28;20000;-80
2023/06/06 04:13:42;;;;;;;;;;;;;;;12.61;100.00;-18367.47;5003206;28;20534;-81
2023/06/06 04:16:08;;;;;;;;;;;;;;;12.51;100.00;-18364.72;5008739;28;19991;-79
2023/06/06 04:18:33;;;;;;;;;;;;;;;12.64;100.00;-18368.28;5014285;28;20347;-80
2023/06/06 04:20:58;;;;;;;;;;;;;;;12.70;100.00;-18369.81;5008346;28;20007;-80
2023/06/06 04:23:24;;;;;;;;;;;;;;;12.60;100.00;-18367.19;5014838;28;19955;-80
2023/06/06 04:25:49;;;;;;;;;;;;;;;12.59;100.00;-18366.78;5012090;28;20375;-81
2023/06/06 04:28:18;;;;;;;;;;;;;;;12.68;100.00;-18369.25;5012547;28;20623;-79
2023/06/06 04:30:45;;;;;;;;;;;;;;;12.58;100.00;-18366.50;5015828;28;19987;-81
2023/06/06 04:33:10;;;;;;;;;;;;;;;12.67;100.00;-18368.97;5009957;28;19917;-79
2023/06/06 04:35:35;;;;;;;;;;;;;;;12.68;100.00;-18369.13;5014563;28;20565;-81
2023/06/06 04:38:01;;;;;;;;;;;;;;;12.72;100.00;-18370.34;5011333;28;20324;-79
2023/06/06 04:40:32;;;;;;;;;;;;;;;12.82;100.00;-18373.09;5007563;28;19917;-81
2023/06/06 04:42:58;;;;;;;;;;;;;;;12.74;100.00;-18370.91;5009059;28;19917;-80
2023/06/06 04:45:23;;;;;;;;;;;;;;;12.92;100.00;-18375.56;5014336;28;19924;-80
2023/06/06 04:47:49;;;;;;;;;;;;;;;12.88;100.00;-18374.75;5010762;28;20391;-80
2023/06/06 04:50:14;;;;;;;;;;;;;;;12.85;100.00;-18373.91;5008578;28;19975;-80
2023/06/06 04:52:39;;;;;;;;;;;;;;;12.95;100.00;-18376.53;5008775;28;19936;-80
2023/06/06 04:55:05;;;;;;;;;;;;;;;12.91;100.00;-18375.28;5027020;28;20469;-80
2023/06/06 04:57:30;;;;;;;;;;;;;;;12.82;100.00;-18373.09;5013120;28;19979;-81
2023/06/06 04:59:56;;;;;;;;;;;;;;;12.94;100.00;-18376.25;5006242;28;20410;-79
2023/06/06 05:02:22;;;;;;;;;;;;;;;13.04;100.00;-18378.84;5011222;28;20388;-79
2023/06/06 05:04:54;;;;;;;;;;;;;;;13.02;100.00;-18378.44;5007915;28;20351;-80
2023/06/06 05:07:24;;;;;;;;;;;;;;;13.10;100.00;-18380.50;5012000;28;20553;-79
2023/06/06 05:09:49;;;;;;;;;;;;;;;13.13;100.00;-18381.31;5004418;28;19948;-80
2023/06/06 05:12:14;;;;;;;;;;;;;;;13.07;100.00;-18379.69;5021857;28;20382;-80
2023/06/06 05:14:40;;;;;;;;;;;;;;;13.22;100.00;-18383.66;5024006;28;20442;-78
2023/06/06 05:17:05;;;;;;;;;;;;;;;13.15;100.00;-18381.72;5016080;28;19925;-80
2023/06/06 05:19:30;;;;;;;;;;;;;;;13.25;100.00;-18384.63;5024550;28;19931;-80
2023/06/06 05:21:55;;;;;;;;;;;;;;;13.28;100.00;-18385.44;5019543;28;19917;-78
2023/06/06 05:24:21;;;;;;;;;;;;;;;13.38;100.00;-18387.91;5011870;28;19922;-80
2023/06/06 05:26:46;;;;;;;;;;;;;;;13.44;100.00;-18389.56;5015813;28;19928;-79
2023/06/06 05:29:11;;;;;;;;;;;;;;;13.57;100.00;-18393.09;5011241;28;19962;-80
2023/06/06 05:31:37;;;;;;;;;;;;;;;13.58;100.00;-18393.38;5014376;28;20340;-80
2023/06/06 05:34:03;;;;;;;;;;;;;;;13.66;100.00;-18395.56;5011091;28;19922;-79
2023/06/06 05:36:28;;;;;;;;;;;;;;;13.87;100.00;-18401.06;5013951;28;19925;-79
2023/06/06 05:38:53;;;;;;;;;;;;;;;13.79;100.00;-18398.88;5010118;28;19921;-79
2023/06/06 05:41:20;;;;;;;;;;;;;;;13.82;100.00;-18399.69;5012779;28;19918;-78
2023/06/06 05:43:45;;;;;;;;;;;;;;;13.97;100.00;-18403.78;5012850;28;19929;-79
2023/06/06 05:46:11;;;;;;;;;;;;;;;14.11;100.00;-18407.63;5013581;28;19936;-78
2023/06/06 05:48:37;;;;;;;;;;;;;;;14.26;100.00;-18411.59;5014256;28;19984;-79
2023/06/06 05:51:02;;;;;;;;;;;;;;;14.17;100.00;-18409.28;5016989;28;19921;-80
2023/06/06 05:53:28;;;;;;;;;;;;;;;14.31;100.00;-18412.84;5011484;28;19971;-78
2023/06/06 05:55:53;;;;;;;;;;;;;;;14.23;100.00;-18410.78;5009063;28;19930;-80
2023/06/06 05:58:18;;;;;;;;;;;;;;;14.32;100.00;-18413.09;5012223;28;19972;-79
2023/06/06 06:00:43;;;;;;;;;;;;;;;14.47;100.00;-18417.22;5008296;28;19925;-79
2023/06/06 06:03:10;;;;;;;;;;;;;;;14.63;100.00;-18421.59;5017764;28;22041;-79
2023/06/06 06:05:36;;;;;;;;;;;;;;;14.47;100.00;-18417.06;5009372;28;19932;-79
2023/06/06 06:08:02;;;;;;;;;;;;;;;14.51;100.00;-18418.31;5008263;28;19925;-79
2023/06/06 06:10:31;;;;;;;;;;;;;;;14.52;100.00;-18418.59;5014718;28;19941;-80
2023/06/06 06:12:56;;;;;;;;;;;;;;;14.63;100.00;-18421.59;5009432;28;20016;-80
2023/06/06 06:15:22;;;;;;;;;;;;;;;14.64;100.00;-18421.88;5011392;28;20484;-80
2023/06/06 06:17:47;;;;;;;;;;;;;;;14.77;100.00;-18425.28;5010841;28;19934;-80
2023/06/06 06:20:14;;;;;;;;;;;;;;;14.94;100.00;-18429.81;5011651;28;19929;-80
2023/06/06 06:22:40;;;;;;;;;;;;;;;15.07;100.00;-18433.38;5015496;28;19921;-79
2023/06/06 06:25:08;;;;;;;;;;;;;;;15.08;100.00;-18433.63;5015759;28;19925;-80
2023/06/06 06:27:35;;;;;;;;;;;;;;;15.37;100.00;-18441.16;5011182;28;19921;-80
2023/06/06 06:30:01;;;;;;;;;;;;;;;15.29;100.00;-18439.25;5011866;28;19921;-80
2023/06/06 06:32:27;;;;;;;;;;;;;;;15.34;100.00;-18440.63;5011310;28;19928;-80
2023/06/06 06:34:52;;;;;;;;;;;;;;;15.34;100.00;-18440.47;5011333;28;19926;-80
2023/06/06 06:37:17;;;;;;;;;;;;;;;15.37;100.00;-18441.16;5013791;28;19922;-80
2023/06/06 06:39:43;;;;;;;;;;;;;;;15.38;100.00;-18441.44;5014207;28;19932;-80
2023/06/06 06:42:08;;;;;;;;;;;;;;;15.69;100.00;-18449.91;5014264;28;19944;-80
2023/06/06 06:44:33;;;;;;;;;;;;;;;15.87;100.00;-18454.72;5013256;28;20044;-80
2023/06/06 06:46:58;;;;;;;;;;;;;;;15.78;100.00;-18452.25;5011696;28;19976;-80
2023/06/06 06:49:24;;;;;;;;;;;;;;;15.65;100.00;-18448.81;5013127;28;20008;-80
2023/06/06 06:51:51;;;;;;;;;;;;;;;15.79;100.00;-18452.66;5013931;28;19929;-80
2023/06/06 06:54:19;;;;;;;;;;;;;;;15.78;100.00;-18452.38;5013190;28;30116;-80
2023/06/06 06:56:44;;;;;;;;;;;;;;;15.90;100.00;-18455.38;5013581;28;19921;-80
2023/06/06 06:59:10;;;;;;;;;;;;;;;15.92;100.00;-18455.94;5012973;28;20044;-79
2023/06/06 07:01:37;;;;;;;;;;;;;;;15.93;100.00;-18456.22;5010793;28;19967;-79
2023/06/06 07:04:04;;;;;;;;;;;;;;;16.09;100.00;-18460.44;5020327;28;19921;-79
2023/06/06 07:06:32;;;;;;;;;;;;;;;16.14;100.00;-18461.81;5012994;28;20392;-80
2023/06/06 07:08:58;;;;;;;;;;;;;;;16.31;100.00;-18466.31;5011725;28;19980;-80
2023/06/06 07:11:23;;;;;;;;;;;;;;;16.51;100.00;-18471.66;5029287;28;20012;-80
2023/06/06 07:13:48;;;;;;;;;;;;;;;16.50;100.00;-18471.53;5003440;28;19929;-80
2023/06/06 07:16:14;;;;;;;;;;;;;;;16.54;100.00;-18472.47;5011299;28;20020;-80
2023/06/06 07:18:39;;;;;;;;;;;;;;;16.78;100.00;-18479.03;5025731;28;19921;-80
2023/06/06 07:21:04;;;;;;;;;;;;;;;16.81;100.00;-18479.72;5020921;28;19922;-80
2023/06/06 07:23:31;;;;;;;;;;;;;;;16.91;100.00;-18482.44;5005579;28;19918;-79
2023/06/06 07:25:56;;;;;;;;;;;;;;;17.06;100.00;-18486.41;5015170;28;19925;-80
2023/06/06 07:28:23;;;;;;;;;;;;;;;17.18;100.00;-18489.56;5015650;28;19925;-80
2023/06/06 07:30:48;;;;;;;;;;;;;;;17.13;100.00;-18488.47;5008272;28;19918;-79
2023/06/06 07:33:13;;;;;;;;;;;;;;;17.32;100.00;-18493.38;5011532;28;19975;-80
2023/06/06 07:35:39;;;;;;;;;;;;;;;17.27;100.00;-18492.16;5012283;28;19948;-81
2023/06/06 07:38:04;;;;;;;;;;;;;;;17.36;100.00;-18494.59;5006213;28;20408;-81
2023/06/06 07:40:30;;;;;;;;;;;;;;;17.36;100.00;-18494.59;5025930;28;20397;-81
2023/06/06 07:42:57;;;;;;;;;;;;;;;17.55;100.00;-18499.50;5016370;28;19921;-81
2023/06/06 07:45:22;;;;;;;;;;;;;;;17.71;100.00;-18503.88;5015920;28;19917;-81
2023/06/06 07:47:47;;;;;;;;;;;;;;;17.87;100.00;-18507.97;5025134;28;19917;-81
2023/06/06 07:50:13;;;;;;;;;;;;;;;17.96;100.00;-18510.44;5012351;28;20007;-81
2023/06/06 07:52:43;;;;;;;;;;;;;;;17.91;100.00;-18509.06;5016116;28;19918;-81
2023/06/06 07:55:08;;;;;;;;;;;;;;;17.84;100.00;-18507.16;5035768;28;19961;-81
2023/06/06 07:57:34;;;;;;;;;;;;;;;17.94;100.00;-18510.03;5027061;28;19953;-81
2023/06/06 07:59:59;;;;;;;;;;;;;;;17.85;100.00;-18507.44;5023492;28;19917;-80
2023/06/06 08:02:24;;;;;;;;;;;;;;;18.11;100.00;-18514.41;5005019;28;19968;-80
2023/06/06 08:04:50;;;;;;;;;;;;;;;18.39;100.00;-18521.91;5014202;28;19918;-80
2023/06/06 08:07:16;;;;;;;;;;;;;;;18.40;100.00;-18522.16;5015787;28;19928;-79
2023/06/06 08:09:45;;;;;;;;;;;;;;;18.34;100.00;-18520.53;5022373;28;19921;-79
2023/06/06 08:12:11;;;;;;;;;;;;;;;18.56;100.00;-18526.53;5017620;28;19921;-81
2023/06/06 08:14:36;;;;;;;;;;;;;;;18.56;100.00;-18526.38;5030621;28;19925;-81
2023/06/06 08:17:04;;;;;;;;;;;;;;;18.65;100.00;-18528.97;5029555;28;19918;-80
2023/06/06 08:19:30;;;;;;;;;;;;;;;18.86;100.00;-18534.56;5021181;28;20568;-81
2023/06/06 08:21:55;;;;;;;;;;;;;;;18.98;100.00;-18537.72;5014562;28;20012;-82
2023/06/06 08:24:20;;;;;;;;;;;;;;;19.06;100.00;-18539.75;5012702;28;19924;-81
2023/06/06 08:26:45;;;;;;;;;;;;;;;19.12;100.00;-18541.53;5027421;28;20273;-81
2023/06/06 08:29:11;;;;;;;;;;;;;;;19.10;100.00;-18540.97;5021626;28;19927;-81
2023/06/06 08:31:36;;;;;;;;;;;;;;;19.22;100.00;-18543.97;5014073;28;19925;-81
2023/06/06 08:34:01;;;;;;;;;;;;;;;19.26;100.00;-18545.06;5015831;28;20023;-80
2023/06/06 08:36:27;;;;;;;;;;;;;;;19.33;100.00;-18546.97;5014200;28;19937;-81
2023/06/06 08:38:52;;;;;;;;;;;;;;;19.61;100.00;-18554.59;5015284;28;20008;-81
2023/06/06 08:41:18;;;;;;;;;;;;;;;19.73;100.00;-18557.59;5017534;28;20063;-81
2023/06/06 08:43:46;;;;;;;;;;;;;;;19.75;100.00;-18558.16;5017415;28;20575;-81
2023/06/06 08:46:12;;;;;;;;;;;;;;;19.70;100.00;-18556.78;5030197;28;20352;-81
2023/06/06 08:48:38;;;;;;;;;;;;;;;19.86;100.00;-18561.16;5022790;28;19924;-81
2023/06/06 08:51:03;;;;;;;;;;;;;;;19.91;100.00;-18562.50;5042100;28;20358;-81
2023/06/06 08:53:29;;;;;;;;;;;;;;;19.96;100.00;-18563.72;5013547;28;19925;-81
2023/06/06 08:55:56;;;;;;;;;;;;;;;20.22;100.00;-18570.69;5028242;28;19921;-81
2023/06/06 08:58:21;;;;;;;;;;;;;;;20.61;100.00;-18581.03;5026382;28;19945;-81
2023/06/06 09:00:49;;;;;;;;;;;;;;;20.83;100.00;-18587.00;5018478;28;20003;-81
2023/06/06 09:03:14;;;;;;;;;;;;;;;21.13;100.00;-18595.03;5008771;28;19917;-81
2023/06/06 09:05:41;;;;;;;;;;;;;;;20.81;100.00;-18586.31;5007350;28;20439;-82
2023/06/06 09:08:06;;;;;;;;;;;;;;;20.67;100.00;-18582.66;5009750;28;20028;-82
2023/06/06 09:10:32;;;;;;;;;;;;;;;20.82;100.00;-18586.72;5001971;28;20005;-81
2023/06/06 09:12:57;;;;;;;;;;;;;;;20.78;100.00;-18585.66;5006198;28;20868;-82
2023/06/06 09:15:25;;;;;;;;;;;;;;;20.88;100.00;-18588.22;5012871;28;19934;-81
2023/06/06 09:17:52;;;;;;;;;;;;;;;20.86;100.00;-18587.81;5006387;28;20002;-81
2023/06/06 09:20:17;;;;;;;;;;;;;;;20.98;100.00;-18590.94;5005174;28;19929;-82
2023/06/06 09:22:44;;;;;;;;;;;;;;;21.05;100.00;-18592.84;5012195;28;19975;-82
2023/06/06 09:25:16;;;;;;;;;;;;;;;21.19;100.00;-18596.66;5013651;28;20447;-81
2023/06/06 09:27:41;;;;;;;;;;;;;;;21.35;99.56;-18600.75;5007559;28;19983;-82
2023/06/06 09:30:17;;;;;;;;;;;;;;;21.29;100.00;-18599.09;5012699;28;19921;-82
2023/06/06 09:32:43;;;;;;;;;;;;;;;21.33;100.00;-18600.19;5029289;28;19921;-82
2023/06/06 09:35:08;;;;;;;;;;;;;;;21.49;100.00;-18604.56;5012922;28;19961;-81
2023/06/06 09:37:33;;;;;;;;;;;;;;;21.66;97.64;-18609.03;5007756;28;19937;-81
2023/06/06 09:40:18;;;;;;;;;;;;;;;21.81;94.32;-18613.13;5004414;28;19930;-81
2023/06/06 09:42:44;;;;;;;;;;;;;;;22.16;95.79;-18622.34;5005286;28;20589;-81
2023/06/06 09:45:13;;;;;;;;;;;;;;;22.29;93.53;-18625.75;5009543;28;19921;-81
2023/06/06 09:47:42;;;;;;;;;;;;;;;22.34;94.05;-18626.97;5004699;28;19922;-81
2023/06/06 09:50:08;;;;;;;;;;;;;;;22.21;92.59;-18623.72;5007755;28;19926;-81
2023/06/06 09:52:33;;;;;;;;;;;;;;;22.55;88.82;-18632.53;5008685;28;19926;-81
2023/06/06 09:54:59;;;;;;;;;;;;;;;22.65;87.94;-18635.38;5011319;28;19968;-81
2023/06/06 09:57:25;;;;;;;;;;;;;;;22.84;87.33;-18640.41;5012326;28;19943;-81
2023/06/06 09:59:52;;;;;;;;;;;;;;;22.82;85.38;-18639.88;5013311;28;20601;-81
2023/06/06 10:02:19;;;;;;;;;;;;;;;22.48;86.37;-18630.91;5011220;28;19922;-81
2023/06/06 10:04:45;;;;;;;;;;;;;;;22.53;83.12;-18632.28;5010542;28;19921;-81
2023/06/06 10:07:11;;;;;;;;;;;;;;;22.60;88.21;-18634.03;5019899;28;19925;-81
2023/06/06 10:09:37;;;;;;;;;;;;;;;23.01;87.45;-18644.91;5014508;28;20277;-81
2023/06/06 10:12:03;;;;;;;;;;;;;;;23.24;85.18;-18650.88;5017466;28;19926;-81
2023/06/06 10:14:30;;;;;;;;;;;;;;;23.00;82.21;-18644.50;5011092;28;19922;-81
2023/06/06 10:16:55;;;;;;;;;;;;;;;22.91;82.27;-18642.31;5007502;28;19929;-81
2023/06/06 10:19:21;;;;;;;;;;;;;;;23.05;78.59;-18645.97;5007540;28;19929;-81
2023/06/06 10:21:47;;;;;;;;;;;;;;;23.08;79.71;-18646.66;5007073;28;20003;-81
2023/06/06 10:24:12;;;;;;;;;;;;;;;23.22;78.95;-18650.31;5007346;28;19930;-81
2023/06/06 10:26:58;;;;;;;;;;;;;;;23.45;80.46;-18656.41;5006995;28;19922;-81
2023/06/06 10:29:27;;;;;;;;;;;;;;;23.71;74.23;-18663.47;4998442;28;19944;-81
2023/06/06 10:31:57;;;;;;;;;;;;;;;24.03;70.76;-18672.03;5006576;28;19931;-81
2023/06/06 10:34:31;;;;;;;;;;;;;;;24.03;70.28;-18671.88;5008833;28;19952;-81
2023/06/06 10:37:12;;;;;;;;;;;;;;;23.95;68.48;-18669.72;5007299;28;19933;-81
2023/06/06 10:39:38;;;;;;;;;;;;;;;24.16;69.80;-18675.28;4981218;28;19981;-81
2023/06/06 10:42:06;;;;;;;;;;;;;;;24.08;69.75;-18673.38;5003813;28;20221;-81
2023/06/06 10:44:32;;;;;;;;;;;;;;;24.07;68.83;-18672.97;5008972;28;19925;-81
2023/06/06 10:47:16;;;;;;;;;;;;;;;24.01;65.54;-18671.34;5013821;28;19921;-81
2023/06/06 10:50:01;;;;;;;;;;;;;;;24.01;67.07;-18671.34;5005836;28;20395;-81
2023/06/06 10:52:26;;;;;;;;;;;;;;;24.41;67.11;-18682.03;5008392;28;20372;-81
2023/06/06 10:54:51;;;;;;;;;;;;;;;24.54;66.66;-18685.56;5012705;28;19968;-81
2023/06/06 10:57:16;;;;;;;;;;;;;;;24.61;61.91;-18687.19;5009209;28;20020;-81
2023/06/06 10:59:47;;;;;;;;;;;;;;;24.71;63.62;-18689.91;5013108;28;19968;-81
2023/06/06 11:02:31;;;;;;;;;;;;;;;24.80;60.70;-18692.34;5007930;28;19925;-81
2023/06/06 11:05:00;;;;;;;;;;;;;;;24.81;59.28;-18692.47;5003531;28;20042;-81
2023/06/06 11:07:27;;;;;;;;;;;;;;;24.47;59.62;-18683.69;5004846;28;19928;-81
2023/06/06 11:09:54;;;;;;;;;;;;;;;24.87;60.67;-18694.25;5022321;28;19921;-81
2023/06/06 11:12:19;;;;;;;;;;;;;;;24.81;58.24;-18692.47;5005928;28;19929;-81
2023/06/06 11:14:58;;;;;;;;;;;;;;;24.79;60.96;-18692.06;5011322;28;19976;-81
2023/06/06 11:17:24;;;;;;;;;;;;;;;24.75;57.00;-18691.00;5011148;28;20574;-81
2023/06/06 11:19:51;;;;;;;;;;;;;;;24.96;57.33;-18696.69;5008276;28;20012;-81
2023/06/06 11:22:20;;;;;;;;;;;;;;;25.08;58.29;-18699.66;5019458;28;20022;-81
2023/06/06 11:24:45;;;;;;;;;;;;;;;24.92;54.08;-18695.59;5019587;28;19979;-81
2023/06/06 11:27:10;;;;;;;;;;;;;;;24.92;56.12;-18695.47;5019695;28;19917;-81
2023/06/06 11:29:36;;;;;;;;;;;;;;;25.20;57.12;-18702.91;5018189;28;19925;-81
2023/06/06 11:32:02;;;;;;;;;;;;;;;25.37;54.87;-18707.50;5020418;28;19953;-82
2023/06/06 11:34:30;;;;;;;;;;;;;;;25.24;54.13;-18704.00;5038751;28;19918;-82
2023/06/06 11:36:56;;;;;;;;;;;;;;;24.98;55.94;-18697.22;5019490;28;19917;-81
2023/06/06 11:39:25;;;;;;;;;;;;;;;25.24;55.11;-18704.00;5015150;28;19922;-81
2023/06/06 11:41:51;;;;;;;;;;;;;;;25.48;53.38;-18710.22;5017868;28;19921;-81
2023/06/06 11:44:17;;;;;;;;;;;;;;;25.67;50.79;-18715.34;5013333;28;19925;-81
2023/06/06 11:46:45;;;;;;;;;;;;;;;25.73;53.64;-18716.97;5008889;28;20408;-81
2023/06/06 11:49:11;;;;;;;;;;;;;;;25.96;50.40;-18723.06;5008214;28;20048;-81
2023/06/06 11:51:36;;;;;;;;;;;;;;;26.35;47.83;-18733.34;5008937;28;19956;-81
2023/06/06 11:54:17;;;;;;;;;;;;;;;26.14;48.77;-18727.66;5012725;28;19922;-81
2023/06/06 11:56:42;;;;;;;;;;;;;;;26.26;49.01;-18730.91;5004422;28;20443;-81
2023/06/06 11:59:08;;;;;;;;;;;;;;;26.30;50.26;-18732.00;5006708;28;19969;-81
2023/06/06 12:01:34;;;;;;;;;;;;;;;26.02;48.37;-18724.69;5006579;28;19917;-79
2023/06/06 12:03:59;;;;;;;;;;;;;;;26.00;48.68;-18724.16;5020828;28;20300;-82
2023/06/06 12:06:24;;;;;;;;;;;;;;;26.58;46.85;-18739.44;5017327;28;19949;-82
2023/06/06 12:08:50;;;;;;;;;;;;;;;26.91;44.74;-18748.09;5019023;28;19935;-82
2023/06/06 12:11:22;;;;;;;;;;;;;;;26.89;44.02;-18747.53;5015384;28;19944;-82
2023/06/06 12:13:47;;;;;;;;;;;;;;;26.85;44.62;-18746.59;5035100;28;19952;-82
2023/06/06 12:16:12;;;;;;;;;;;;;;;27.00;45.91;-18750.66;5019640;28;20320;-81
2023/06/06 12:18:47;;;;;;;;;;;;;;;26.88;45.60;-18747.28;5013149;28;19924;-82
2023/06/06 12:21:16;;;;;;;;;;;;;;;27.06;44.33;-18752.13;5019471;28;20004;-82
2023/06/06 12:23:43;;;;;;;;;;;;;;;27.41;45.07;-18761.44;5026014;28;20058;-81
2023/06/06 12:26:11;;;;;;;;;;;;;;;27.52;43.25;-18764.16;5014545;28;19933;-82